Time;durP1;ratioP1;P1;durP2;ratioP2;P2;SDS_P1;SDS_P2;PMS_P1;PMS_P2;Temp;Humidity;BMP_temperature;BMP_pressure;BME280_temperature;BME280_humidity;BME280_pressure;Samples;Min_cycle;Max_cycle;Signal;HPM_P1;HPM_P2
2022/01/27 00:00:07;;;;;;;20.10;18.00;;;4.10;99.90;;;;;;5001817;28;20209;-71
2022/01/27 00:02:55;;;;;;;21.52;19.13;;;4.30;99.90;;;;;;5006309;28;20263;-71
2022/01/27 00:05:26;;;;;;;20.70;18.60;;;4.20;99.90;;;;;;5009820;28;20225;-72
2022/01/27 00:08:09;;;;;;;22.25;19.77;;;4.30;99.90;;;;;;5013728;28;20288;-71
2022/01/27 00:10:50;;;;;;;19.70;17.30;;;4.20;99.90;;;;;;5013474;28;20201;-72
2022/01/27 00:13:19;;;;;;;21.40;18.83;;;4.30;99.90;;;;;;5013537;28;20646;-71
2022/01/27 00:15:58;;;;;;;25.52;20.65;;;4.60;99.90;;;;;;5007605;28;20232;-71
2022/01/27 00:18:29;;;;;;;22.13;19.17;;;4.50;99.90;;;;;;5013516;28;20288;-71
2022/01/27 00:20:58;;;;;;;23.52;19.83;;;4.30;99.90;;;;;;5013686;28;20244;-71
2022/01/27 00:23:26;;;;;;;22.13;18.95;;;4.00;99.90;;;;;;5013139;28;20628;-72
2022/01/27 00:25:54;;;;;;;23.92;21.33;;;4.20;99.90;;;;;;5013017;28;20249;-70
2022/01/27 00:28:22;;;;;;;23.55;19.63;;;3.90;99.90;;;;;;5013369;28;20763;-71
2022/01/27 00:30:49;;;;;;;22.77;20.40;;;3.70;99.90;;;;;;4995576;28;20240;-71
2022/01/27 00:33:17;;;;;;;22.70;19.50;;;3.70;99.90;;;;;;4995795;28;20228;-71
2022/01/27 00:35:45;;;;;;;23.05;20.67;;;3.90;99.90;;;;;;5013276;28;20260;-71
2022/01/27 00:38:15;;;;;;;25.00;22.00;;;3.70;99.90;;;;;;5013276;28;20209;-71
2022/01/27 00:40:44;;;;;;;26.90;21.38;;;3.70;99.90;;;;;;5013144;28;20217;-71
2022/01/27 00:43:12;;;;;;;27.02;22.33;;;3.80;99.90;;;;;;5012877;28;20251;-71
2022/01/27 00:45:40;;;;;;;27.17;24.08;;;3.50;99.90;;;;;;5012870;28;20702;-71
2022/01/27 00:48:08;;;;;;;25.60;22.90;;;3.60;99.90;;;;;;5013222;28;20288;-71
2022/01/27 00:50:38;;;;;;;26.23;23.20;;;3.10;99.90;;;;;;5012986;28;20205;-69
2022/01/27 00:53:20;;;;;;;27.52;24.13;;;3.20;99.90;;;;;;5012464;28;20648;-72
2022/01/27 00:55:50;;;;;;;25.77;22.98;;;3.40;99.90;;;;;;5012621;28;20339;-71
2022/01/27 00:58:32;;;;;;;25.77;23.10;;;3.40;99.90;;;;;;5013815;28;20313;-71
2022/01/27 01:01:04;;;;;;;25.30;22.60;;;3.30;99.90;;;;;;5023476;28;20243;-71
2022/01/27 01:03:36;;;;;;;24.00;21.55;;;3.40;99.90;;;;;;5015277;28;20232;-71
2022/01/27 01:06:19;;;;;;;25.13;22.42;;;3.90;99.90;;;;;;5014356;28;20256;-71
2022/01/27 01:09:45;;;;;;;24.52;22.02;;;3.60;99.90;;;;;;5013916;28;20256;-71
2022/01/27 01:14:45;;;;;;;25.35;22.75;;;3.70;99.90;;;;;;5013293;28;20260;-72
2022/01/27 01:17:30;;;;;;;26.00;22.63;;;4.00;99.90;;;;;;5007946;28;20300;-71
2022/01/27 01:20:18;;;;;;;23.25;20.75;;;4.20;99.90;;;;;;5010146;28;20280;-71
2022/01/27 01:31:27;;;;;;;24.60;21.05;;;4.10;99.90;;;;;;5012950;28;20255;-71
2022/01/27 01:34:10;;;;;;;23.70;20.80;;;4.30;99.90;;;;;;5029650;28;20244;-71
2022/01/27 01:36:45;;;;;;;22.50;20.25;;;4.30;99.90;;;;;;5014982;28;20275;-71
2022/01/27 01:39:14;;;;;;;22.65;20.25;;;4.50;99.90;;;;;;5012576;28;20296;-73
2022/01/27 01:41:43;;;;;;;21.95;18.98;;;4.70;99.90;;;;;;5011913;28;20205;-73
2022/01/27 01:44:12;;;;;;;22.20;19.88;;;4.70;99.90;;;;;;5011949;28;20236;-72
2022/01/27 01:46:40;;;;;;;21.55;19.13;;;4.70;99.90;;;;;;5011765;28;20275;-72
2022/01/27 01:49:08;;;;;;;22.58;20.17;;;4.70;99.90;;;;;;5012047;28;20741;-71
2022/01/27 01:51:38;;;;;;;26.02;21.27;;;4.70;99.90;;;;;;5011677;28;20296;-72
2022/01/27 01:54:07;;;;;;;23.40;19.85;;;4.10;99.90;;;;;;5005361;28;20650;-72
2022/01/27 01:56:37;;;;;;;27.00;21.60;;;3.70;99.90;;;;;;5007707;28;20223;-72
2022/01/27 01:59:05;;;;;;;24.13;21.13;;;3.70;99.90;;;;;;5005963;28;20285;-73
2022/01/27 02:01:36;;;;;;;27.10;22.40;;;3.40;99.90;;;;;;5011478;28;20208;-72
2022/01/27 02:04:07;;;;;;;25.67;22.90;;;3.50;99.90;;;;;;5011707;28;20232;-72
2022/01/27 02:06:41;;;;;;;26.08;23.38;;;3.40;99.90;;;;;;5015558;28;20229;-72
2022/01/27 02:09:21;;;;;;;26.48;22.27;;;3.40;99.90;;;;;;5016368;28;20228;-72
2022/01/27 02:20:09;;;;;;;31.00;26.13;;;3.30;99.90;;;;;;5011378;28;20227;-72
2022/01/27 02:22:37;;;;;;;30.42;27.35;;;3.10;99.90;;;;;;5011207;28;20225;-72
2022/01/27 02:25:06;;;;;;;27.27;23.05;;;2.90;99.90;;;;;;5010247;28;20701;-71
2022/01/27 02:27:34;;;;;;;28.13;25.17;;;3.00;99.90;;;;;;5011128;28;20197;-72
2022/01/27 02:30:02;;;;;;;28.33;25.00;;;3.40;99.90;;;;;;5010947;28;20663;-71
2022/01/27 02:32:30;;;;;;;29.38;26.27;;;3.30;99.90;;;;;;4993588;28;20209;-72
2022/01/27 02:34:59;;;;;;;29.13;26.00;;;3.30;99.90;;;;;;5011056;28;20727;-72
2022/01/27 02:37:29;;;;;;;27.85;24.92;;;3.30;99.90;;;;;;5011212;28;20252;-73
2022/01/27 02:39:57;;;;;;;29.15;25.90;;;3.10;99.90;;;;;;5011160;28;20283;-70
2022/01/27 02:42:31;;;;;;;29.23;25.77;;;2.90;99.90;;;;;;5011172;28;20658;-72
2022/01/27 02:45:05;;;;;;;28.98;25.98;;;2.90;99.90;;;;;;5011110;28;20637;-72
2022/01/27 02:47:34;;;;;;;28.25;24.33;;;3.10;99.90;;;;;;5011302;28;20208;-72
2022/01/27 02:50:02;;;;;;;24.80;22.17;;;3.30;99.90;;;;;;5011066;28;20646;-72
2022/01/27 02:52:31;;;;;;;28.77;25.45;;;3.70;99.90;;;;;;5010970;28;20670;-72
2022/01/27 02:54:59;;;;;;;29.33;25.75;;;3.70;99.90;;;;;;5010851;28;20259;-72
2022/01/27 02:57:27;;;;;;;29.23;23.65;;;3.70;99.90;;;;;;5006272;28;20205;-71
2022/01/27 02:59:55;;;;;;;27.15;24.33;;;3.40;99.90;;;;;;5004605;28;20201;-70
2022/01/27 03:02:24;;;;;;;28.60;25.52;;;3.00;99.90;;;;;;5004514;28;20241;-71
2022/01/27 03:04:52;;;;;;;30.25;26.00;;;2.80;99.90;;;;;;5004831;28;20201;-71
2022/01/27 03:07:20;;;;;;;28.73;25.75;;;2.70;99.90;;;;;;5005154;28;20272;-71
2022/01/27 03:09:49;;;;;;;29.88;26.00;;;2.50;99.90;;;;;;5011116;28;20244;-72
2022/01/27 03:12:18;;;;;;;29.30;25.23;;;2.70;99.90;;;;;;5012734;28;20300;-71
2022/01/27 03:14:46;;;;;;;29.13;25.92;;;2.80;99.90;;;;;;5013691;28;20248;-71
2022/01/27 03:17:14;;;;;;;28.90;25.60;;;2.80;99.90;;;;;;5011050;28;20623;-71
2022/01/27 03:19:43;;;;;;;30.77;26.38;;;2.50;99.90;;;;;;5011041;28;20241;-71
2022/01/27 03:22:10;;;;;;;29.05;25.95;;;2.40;99.90;;;;;;5010660;28;20240;-71
2022/01/27 03:24:39;;;;;;;28.42;25.52;;;2.60;99.90;;;;;;5011063;28;20614;-70
2022/01/27 03:27:15;;;;;;;28.42;25.38;;;2.70;99.90;;;;;;5014433;28;20279;-72
2022/01/27 03:29:43;;;;;;;28.40;25.30;;;2.50;99.90;;;;;;5014668;28;20205;-71
2022/01/27 03:32:11;;;;;;;27.70;24.80;;;2.70;99.90;;;;;;5014185;28;20690;-71
2022/01/27 03:34:39;;;;;;;28.75;25.95;;;2.80;99.90;;;;;;5014267;28;20229;-72
2022/01/27 03:37:07;;;;;;;29.98;26.77;;;2.70;99.90;;;;;;5014419;28;20228;-71
2022/01/27 03:39:38;;;;;;;29.80;26.73;;;2.80;99.90;;;;;;5014283;28;20198;-71
2022/01/27 03:42:08;;;;;;;30.55;27.38;;;3.10;99.90;;;;;;4996458;28;20245;-70
2022/01/27 03:44:36;;;;;;;26.10;23.40;;;2.90;99.90;;;;;;5014467;28;20205;-71
2022/01/27 03:47:05;;;;;;;31.02;27.83;;;3.00;99.90;;;;;;5014150;28;20209;-71
2022/01/27 03:49:33;;;;;;;32.38;28.98;;;2.80;99.90;;;;;;5014151;28;20206;-71
2022/01/27 03:52:02;;;;;;;32.40;28.95;;;2.60;99.90;;;;;;5013320;28;20299;-72
2022/01/27 03:54:31;;;;;;;31.98;28.67;;;2.50;99.90;;;;;;5013923;28;20201;-72
2022/01/27 03:57:00;;;;;;;32.75;29.35;;;2.50;99.90;;;;;;5013609;28;20283;-71
2022/01/27 03:59:30;;;;;;;34.88;31.17;;;2.30;99.90;;;;;;5014045;28;20259;-71
2022/01/27 04:01:58;;;;;;;35.22;31.55;;;2.30;99.90;;;;;;5013737;28;20256;-71
2022/01/27 04:04:27;;;;;;;33.67;30.13;;;2.40;99.90;;;;;;5013728;28;20240;-70
2022/01/27 04:06:57;;;;;;;33.78;30.27;;;2.50;99.90;;;;;;5013576;28;20275;-70
2022/01/27 04:09:26;;;;;;;32.38;29.10;;;2.40;99.90;;;;;;5013909;28;20225;-69
2022/01/27 04:11:54;;;;;;;35.10;31.52;;;2.20;99.90;;;;;;5013562;28;20289;-69
2022/01/27 04:14:22;;;;;;;35.35;31.08;;;2.00;99.90;;;;;;5013806;28;20630;-71
2022/01/27 04:16:51;;;;;;;34.67;29.65;;;1.90;99.90;;;;;;5013390;28;20267;-70
2022/01/27 04:19:19;;;;;;;33.75;30.20;;;2.10;99.90;;;;;;5018545;28;20212;-71
2022/01/27 04:21:50;;;;;;;30.33;27.08;;;2.30;99.90;;;;;;5019828;28;20201;-71
2022/01/27 04:24:19;;;;;;;31.48;28.17;;;2.70;99.90;;;;;;5013079;28;20237;-70
2022/01/27 04:26:51;;;;;;;31.10;26.30;;;2.90;99.90;;;;;;5013189;28;20217;-70
2022/01/27 04:29:22;;;;;;;30.27;27.08;;;3.20;99.90;;;;;;4995964;28;20271;-71
2022/01/27 04:31:52;;;;;;;29.63;25.95;;;3.20;99.90;;;;;;5013250;28;20212;-71
2022/01/27 04:34:20;;;;;;;30.23;25.88;;;2.90;99.90;;;;;;5013198;28;20700;-70
2022/01/27 04:36:48;;;;;;;30.55;27.35;;;2.70;99.90;;;;;;5012311;28;20257;-72
2022/01/27 04:39:21;;;;;;;28.38;25.27;;;2.70;99.90;;;;;;5013387;28;20217;-71
2022/01/27 04:41:54;;;;;;;29.35;26.25;;;3.00;99.90;;;;;;5013089;28;20660;-72
2022/01/27 04:44:28;;;;;;;31.13;26.98;;;2.80;99.90;;;;;;5012976;28;20205;-71
2022/01/27 04:47:03;;;;;;;30.08;26.23;;;2.60;99.90;;;;;;5012728;28;20269;-73
2022/01/27 04:49:31;;;;;;;30.80;26.92;;;2.40;99.90;;;;;;5013129;28;20708;-71
2022/01/27 04:51:59;;;;;;;28.65;25.45;;;2.40;99.90;;;;;;5013777;28;20674;-69
2022/01/27 04:54:57;;;;;;;25.67;22.98;;;2.30;99.90;;;;;;5012496;28;20291;-70
2022/01/27 04:57:27;;;;;;;29.77;26.58;;;2.30;99.90;;;;;;5012580;28;20304;-71
2022/01/27 04:59:56;;;;;;;29.17;25.95;;;2.30;99.90;;;;;;5013038;28;20236;-71
2022/01/27 05:02:34;;;;;;;30.10;26.00;;;2.20;99.90;;;;;;5012250;28;20793;-71
2022/01/27 05:05:02;;;;;;;29.83;24.30;;;2.20;99.90;;;;;;5012718;28;20225;-71
2022/01/27 05:07:54;;;;;;;28.13;25.13;;;2.70;99.90;;;;;;5012810;28;20733;-71
2022/01/27 05:10:25;;;;;;;26.05;23.25;;;2.80;99.90;;;;;;5007367;28;20225;-71
2022/01/27 05:12:59;;;;;;;28.77;25.30;;;2.80;99.90;;;;;;5012294;28;20731;-67
2022/01/27 05:15:27;;;;;;;29.85;26.50;;;2.80;99.90;;;;;;5012435;28;20573;-71
2022/01/27 05:17:56;;;;;;;28.55;25.55;;;2.60;99.90;;;;;;5012476;28;20283;-72
2022/01/27 05:20:24;;;;;;;27.17;24.17;;;2.70;99.90;;;;;;5012306;28;20288;-69
2022/01/27 05:22:53;;;;;;;31.40;28.00;;;2.40;99.90;;;;;;5011930;28;20693;-71
2022/01/27 05:25:21;;;;;;;30.55;27.20;;;2.60;99.90;;;;;;5013461;28;20252;-70
2022/01/27 05:27:48;;;;;;;30.80;27.50;;;2.60;99.90;;;;;;5013428;28;20659;-69
2022/01/27 05:30:17;;;;;;;32.15;28.75;;;2.40;99.90;;;;;;5012224;28;20296;-70
2022/01/27 05:32:44;;;;;;;33.17;29.52;;;2.20;99.90;;;;;;5011677;28;20237;-71
2022/01/27 05:35:14;;;;;;;35.03;28.05;;;2.10;99.90;;;;;;5012285;28;20304;-71
2022/01/27 05:37:42;;;;;;;29.00;25.90;;;2.30;99.90;;;;;;5012081;28;20225;-71
2022/01/27 05:40:11;;;;;;;29.42;26.23;;;2.60;99.90;;;;;;5012124;28;20232;-71
2022/01/27 05:42:38;;;;;;;32.13;27.65;;;2.80;99.90;;;;;;5011514;28;20251;-71
2022/01/27 05:45:07;;;;;;;30.48;27.40;;;2.70;99.90;;;;;;5011694;28;20279;-72
2022/01/27 05:47:35;;;;;;;32.33;28.92;;;2.80;99.90;;;;;;5011559;28;20663;-70
2022/01/27 05:50:04;;;;;;;29.92;26.67;;;2.70;99.90;;;;;;5011923;28;20233;-71
2022/01/27 05:52:34;;;;;;;31.58;28.23;;;2.90;99.90;;;;;;5011268;28;20201;-69
2022/01/27 05:55:02;;;;;;;29.88;25.75;;;2.80;99.90;;;;;;5001723;28;20221;-70
2022/01/27 05:57:30;;;;;;;28.42;25.40;;;2.80;99.90;;;;;;5006106;28;20291;-70
2022/01/27 05:59:58;;;;;;;29.42;26.23;;;2.90;99.90;;;;;;5006157;28;20197;-71
2022/01/27 06:02:26;;;;;;;29.80;26.58;;;2.90;99.90;;;;;;5006132;28;20205;-69
2022/01/27 06:04:54;;;;;;;29.00;25.92;;;2.90;99.90;;;;;;5006311;28;20209;-69
2022/01/27 06:07:21;;;;;;;30.00;26.55;;;2.70;99.90;;;;;;5006363;28;20209;-69
2022/01/27 06:09:52;;;;;;;29.15;26.05;;;2.60;99.90;;;;;;5005997;28;20296;-70
2022/01/27 06:12:20;;;;;;;30.15;25.70;;;2.60;99.90;;;;;;5004401;28;20227;-70
2022/01/27 06:14:48;;;;;;;29.23;26.05;;;2.70;99.90;;;;;;5006403;28;20252;-70
2022/01/27 06:17:16;;;;;;;29.85;25.73;;;2.60;99.90;;;;;;5006272;28;20279;-69
2022/01/27 06:19:46;;;;;;;24.48;21.98;;;2.70;99.90;;;;;;5005890;28;20209;-70
2022/01/27 06:22:15;;;;;;;32.13;25.73;;;3.00;99.90;;;;;;5005540;28;20233;-69
2022/01/27 06:24:44;;;;;;;29.17;26.08;;;2.80;99.90;;;;;;5005597;28;20722;-70
2022/01/27 06:27:14;;;;;;;30.42;24.52;;;2.80;99.90;;;;;;5005890;28;20288;-69
2022/01/27 06:29:42;;;;;;;29.63;24.58;;;2.70;99.90;;;;;;5007298;28;20312;-70
2022/01/27 06:32:10;;;;;;;27.42;23.75;;;2.50;99.90;;;;;;5012503;28;20303;-70
2022/01/27 06:34:38;;;;;;;25.95;22.95;;;2.80;99.90;;;;;;5005882;28;20205;-69
2022/01/27 06:37:06;;;;;;;26.42;23.55;;;3.30;99.90;;;;;;5005762;28;20717;-70
2022/01/27 06:39:34;;;;;;;28.13;25.00;;;3.30;99.90;;;;;;5005876;28;20209;-71
2022/01/27 06:42:05;;;;;;;28.15;22.67;;;3.20;99.90;;;;;;5005518;28;20202;-70
2022/01/27 06:44:34;;;;;;;27.65;23.50;;;3.10;99.90;;;;;;5005589;28;20225;-72
2022/01/27 06:47:02;;;;;;;28.13;23.15;;;2.90;99.90;;;;;;4999977;28;20229;-70
2022/01/27 06:49:29;;;;;;;25.40;22.25;;;2.70;99.90;;;;;;5005936;28;20726;-70
2022/01/27 06:51:58;;;;;;;27.55;23.65;;;2.40;99.90;;;;;;5005515;28;20605;-70
2022/01/27 06:54:26;;;;;;;27.80;23.30;;;2.30;99.90;;;;;;5005832;28;20284;-72
2022/01/27 06:56:54;;;;;;;28.10;24.70;;;2.10;99.90;;;;;;5005330;28;20432;-71
2022/01/27 06:59:22;;;;;;;30.30;23.75;;;2.00;99.90;;;;;;5005914;28;20232;-72
2022/01/27 07:01:51;;;;;;;31.83;24.80;;;1.90;99.90;;;;;;5009920;28;20240;-71
2022/01/27 07:04:19;;;;;;;32.20;24.92;;;1.90;99.90;;;;;;5004651;28;20205;-70
2022/01/27 07:06:49;;;;;;;27.85;23.20;;;1.80;99.90;;;;;;5009871;28;20416;-71
2022/01/27 07:09:16;;;;;;;27.80;22.13;;;1.80;99.90;;;;;;5009639;28;20209;-71
2022/01/27 07:11:44;;;;;;;26.20;21.52;;;1.80;99.90;;;;;;5009434;28;20288;-70
2022/01/27 07:14:12;;;;;;;28.80;22.60;;;1.70;99.90;;;;;;5009428;28;20292;-70
2022/01/27 07:16:42;;;;;;;32.53;24.40;;;1.70;99.90;;;;;;5009701;28;20320;-71
2022/01/27 07:19:11;;;;;;;28.33;23.55;;;1.70;99.90;;;;;;5009322;28;20205;-70
2022/01/27 07:21:39;;;;;;;32.70;22.85;;;1.60;99.90;;;;;;5009007;28;20305;-73
2022/01/27 07:24:07;;;;;;;31.85;22.70;;;1.60;99.90;;;;;;5008954;28;20213;-72
2022/01/27 07:26:35;;;;;;;31.85;23.13;;;1.60;99.90;;;;;;5008917;28;20282;-73
2022/01/27 07:29:03;;;;;;;29.80;22.08;;;1.60;99.90;;;;;;4991628;28;20779;-73
2022/01/27 07:31:31;;;;;;;26.85;23.17;;;1.60;99.90;;;;;;5009202;28;20205;-73
2022/01/27 07:33:59;;;;;;;26.80;21.73;;;1.60;99.90;;;;;;5008976;28;20655;-73
2022/01/27 07:36:31;;;;;;;27.35;23.50;;;1.60;99.90;;;;;;5010568;28;20323;-73
2022/01/27 07:39:00;;;;;;;27.45;21.95;;;1.60;99.90;;;;;;5012519;28;20252;-73
2022/01/27 07:41:28;;;;;;;29.75;24.45;;;1.60;99.90;;;;;;5013965;28;20225;-73
2022/01/27 07:43:56;;;;;;;28.40;23.17;;;1.60;99.90;;;;;;5013545;28;20213;-73
2022/01/27 07:46:24;;;;;;;29.10;22.67;;;1.60;99.90;;;;;;5013943;28;20237;-74
2022/01/27 07:48:52;;;;;;;28.10;22.80;;;1.60;99.90;;;;;;5013243;28;20690;-73
2022/01/27 07:51:20;;;;;;;26.77;21.95;;;1.60;99.90;;;;;;5013144;28;20252;-73
2022/01/27 07:53:49;;;;;;;27.40;22.83;;;1.60;99.90;;;;;;5013747;28;20624;-73
2022/01/27 07:56:30;;;;;;;29.08;23.88;;;1.60;99.90;;;;;;5013936;28;20303;-73
2022/01/27 07:58:58;;;;;;;27.33;22.33;;;1.60;99.90;;;;;;5014296;28;20244;-74
2022/01/27 08:01:26;;;;;;;28.60;23.05;;;1.60;99.90;;;;;;5013908;28;20247;-73
2022/01/27 08:03:54;;;;;;;26.13;21.77;;;1.60;99.90;;;;;;5015649;28;20201;-73
2022/01/27 08:06:22;;;;;;;27.02;23.40;;;1.70;99.90;;;;;;5013808;28;20263;-75
2022/01/27 08:08:51;;;;;;;31.13;23.20;;;1.70;99.90;;;;;;5014078;28;20640;-75
2022/01/27 08:11:19;;;;;;;25.02;21.50;;;1.70;99.90;;;;;;5014058;28;20205;-72
2022/01/27 08:13:47;;;;;;;30.88;23.13;;;1.80;99.90;;;;;;5013388;28;20241;-74
2022/01/27 08:16:15;;;;;;;25.77;21.48;;;1.80;99.90;;;;;;5013584;28;20690;-75
2022/01/27 08:18:47;;;;;;;26.50;22.73;;;1.80;99.90;;;;;;5013700;28;20225;-73
2022/01/27 08:21:15;;;;;;;26.23;22.73;;;1.90;99.90;;;;;;5007266;28;20786;-75
2022/01/27 08:23:44;;;;;;;24.15;21.08;;;1.90;99.90;;;;;;5006875;28;20300;-74
2022/01/27 08:26:26;;;;;;;26.02;21.85;;;1.90;99.90;;;;;;5007312;28;20693;-74
2022/01/27 08:29:05;;;;;;;25.35;21.95;;;1.80;99.90;;;;;;5012777;28;20308;-74
2022/01/27 08:31:42;;;;;;;30.08;23.15;;;1.80;99.90;;;;;;5013412;28;20193;-73
2022/01/27 08:34:15;;;;;;;25.70;21.85;;;1.80;99.90;;;;;;5010161;28;20196;-75
2022/01/27 08:36:43;;;;;;;28.90;22.60;;;1.80;99.90;;;;;;5013629;28;20320;-75
2022/01/27 08:39:11;;;;;;;27.58;22.67;;;1.80;99.90;;;;;;5013730;28;20221;-74
2022/01/27 08:41:41;;;;;;;29.33;22.77;;;1.90;99.90;;;;;;5013338;28;20216;-74
2022/01/27 08:44:09;;;;;;;30.85;23.83;;;1.80;99.90;;;;;;5013201;28;20256;-74
2022/01/27 08:46:37;;;;;;;27.60;23.98;;;1.90;99.90;;;;;;5013046;28;20730;-74
2022/01/27 08:49:06;;;;;;;32.05;25.63;;;1.90;99.90;;;;;;5013060;28;20221;-75
2022/01/27 08:51:34;;;;;;;29.35;24.23;;;1.90;99.90;;;;;;5013363;28;20209;-74
2022/01/27 08:54:03;;;;;;;28.33;23.42;;;1.90;99.90;;;;;;5012791;28;20202;-74
2022/01/27 08:56:31;;;;;;;30.40;24.42;;;1.90;99.90;;;;;;4995222;28;20316;-74
2022/01/27 08:59:01;;;;;;;30.77;24.13;;;1.90;99.90;;;;;;5012674;28;20227;-75
2022/01/27 09:01:29;;;;;;;31.15;24.45;;;1.90;99.90;;;;;;5013081;28;20220;-74
2022/01/27 09:03:57;;;;;;;33.33;26.30;;;1.90;99.90;;;;;;5012484;28;20296;-74
2022/01/27 09:06:28;;;;;;;30.55;24.70;;;2.00;99.90;;;;;;5012501;28;20780;-74
2022/01/27 09:08:58;;;;;;;31.63;26.33;;;3.20;99.90;;;;;;5012753;28;20233;-75
2022/01/27 09:11:28;;;;;;;31.73;25.80;;;2.00;99.90;;;;;;5012744;28;20272;-74
2022/01/27 09:13:56;;;;;;;32.08;25.67;;;2.00;99.90;;;;;;5012622;28;20201;-74
2022/01/27 09:16:27;;;;;;;29.45;25.27;;;2.00;99.90;;;;;;5012594;28;20245;-74
2022/01/27 09:19:06;;;;;;;28.08;22.75;;;2.00;99.90;;;;;;5012404;28;20225;-74
2022/01/27 09:21:42;;;;;;;26.88;22.35;;;2.10;99.90;;;;;;5012653;28;20201;-74
2022/01/27 09:24:14;;;;;;;30.17;24.30;;;2.00;99.90;;;;;;5011820;28;20297;-74
2022/01/27 09:26:51;;;;;;;31.25;26.13;;;2.00;99.90;;;;;;5012173;28;20284;-74
2022/01/27 09:29:21;;;;;;;29.80;24.23;;;2.00;99.90;;;;;;5012163;28;20197;-74
2022/01/27 09:31:51;;;;;;;33.25;26.42;;;2.00;99.90;;;;;;5012223;28;20216;-73
2022/01/27 09:34:20;;;;;;;31.33;26.25;;;2.00;99.90;;;;;;5012449;28;20705;-74
2022/01/27 09:36:49;;;;;;;30.50;25.20;;;2.00;99.90;;;;;;5012340;28;20772;-75
2022/01/27 09:39:18;;;;;;;32.28;26.90;;;2.00;99.90;;;;;;5011879;28;20267;-74
2022/01/27 09:41:47;;;;;;;29.02;25.92;;;2.10;99.90;;;;;;5012428;28;20655;-74
2022/01/27 09:44:15;;;;;;;29.35;24.52;;;2.10;99.90;;;;;;5011872;28;20239;-74
2022/01/27 09:46:46;;;;;;;31.98;25.77;;;2.10;99.90;;;;;;5005323;28;20259;-75
2022/01/27 09:49:18;;;;;;;31.65;25.52;;;2.20;99.90;;;;;;5005991;28;20602;-74
2022/01/27 09:51:47;;;;;;;29.65;25.48;;;2.10;99.90;;;;;;5012117;28;20205;-74
2022/01/27 09:54:16;;;;;;;32.17;26.48;;;2.20;99.90;;;;;;5011938;28;20205;-74
2022/01/27 09:56:44;;;;;;;37.75;26.63;;;2.20;99.90;;;;;;5011689;28;20283;-74
2022/01/27 09:59:16;;;;;;;30.92;26.45;;;2.20;99.90;;;;;;5011642;28;20312;-74
2022/01/27 10:01:54;;;;;;;31.85;24.92;;;2.20;99.90;;;;;;5011765;28;20233;-74
2022/01/27 10:04:26;;;;;;;30.73;24.88;;;2.30;99.90;;;;;;5011808;28;20201;-75
2022/01/27 10:06:58;;;;;;;31.80;26.00;;;2.30;99.90;;;;;;5012063;28;20279;-74
2022/01/27 10:09:29;;;;;;;30.20;24.48;;;2.30;99.90;;;;;;5011808;28;20259;-74
2022/01/27 10:12:02;;;;;;;27.20;24.48;;;2.30;99.90;;;;;;5011825;28;20204;-74
2022/01/27 10:14:35;;;;;;;27.60;24.67;;;2.30;99.90;;;;;;4994366;28;20205;-74
2022/01/27 10:17:07;;;;;;;26.50;22.08;;;2.40;99.90;;;;;;5011761;28;20260;-73
2022/01/27 10:19:37;;;;;;;26.52;22.55;;;2.30;99.90;;;;;;5011557;28;20629;-73
2022/01/27 10:22:06;;;;;;;26.88;22.80;;;2.40;99.90;;;;;;5011728;28;20205;-74
2022/01/27 10:24:35;;;;;;;26.67;22.27;;;2.30;99.90;;;;;;5011653;28;20289;-74
2022/01/27 10:27:24;;;;;;;25.50;22.90;;;2.30;99.90;;;;;;4994091;28;20241;-75
2022/01/27 10:30:35;;;;;;;25.08;21.83;;;2.50;99.90;;;;;;5011239;28;20232;-75
2022/01/27 10:32:55;;;;;;;29.33;24.90;;;2.50;99.90;;;;;;4989433;28;20200;-74
2022/01/27 10:35:26;;;;;;;27.33;24.17;;;2.40;99.90;;;;;;5013245;28;20252;-74
2022/01/27 10:38:01;;;;;;;28.58;24.83;;;2.40;99.90;;;;;;5015632;28;20728;-71
2022/01/27 10:40:32;;;;;;;31.05;26.23;;;2.30;99.90;;;;;;5015502;28;20721;-74
2022/01/27 10:43:04;;;;;;;28.75;24.67;;;2.30;99.90;;;;;;5015826;28;20622;-74
2022/01/27 10:45:32;;;;;;;29.38;25.05;;;2.30;99.90;;;;;;5015286;28;20267;-74
2022/01/27 10:48:13;;;;;;;28.42;23.65;;;2.30;99.90;;;;;;5015257;28;20607;-74
2022/01/27 10:51:01;;;;;;;27.42;22.90;;;2.40;99.90;;;;;;5009248;28;20658;-74
2022/01/27 10:53:53;;;;;;;27.25;24.45;;;2.50;99.90;;;;;;5027416;23;20237;-62
2022/01/27 10:56:23;;;;;;;25.77;23.02;;;2.60;99.90;;;;;;5014608;28;20213;-62
2022/01/27 10:58:52;;;;;;;23.42;21.05;;;2.70;99.90;;;;;;5014494;28;20770;-62
2022/01/27 11:01:25;;;;;;;23.35;20.85;;;2.80;99.90;;;;;;5009103;28;20249;-62
2022/01/27 11:03:56;;;;;;;23.00;20.60;;;2.90;99.90;;;;;;5014742;28;20753;-62
2022/01/27 11:06:27;;;;;;;24.30;20.13;;;3.00;99.90;;;;;;5014745;28;20307;-62
2022/01/27 11:08:58;;;;;;;23.67;21.17;;;3.10;99.90;;;;;;5014913;28;20834;-63
2022/01/27 11:11:27;;;;;;;21.33;19.10;;;3.20;99.90;;;;;;5015136;28;20244;-62
2022/01/27 11:13:58;;;;;;;19.50;17.50;;;3.20;99.90;;;;;;5014380;28;20311;-62
2022/01/27 11:16:34;;;;;;;21.17;18.98;;;3.20;99.90;;;;;;5014765;28;20240;-62
2022/01/27 11:19:34;;;;;;;20.88;18.77;;;3.30;99.90;;;;;;5014398;28;20677;-62
2022/01/27 11:22:09;;;;;;;20.10;18.05;;;3.30;99.90;;;;;;5014491;28;20221;-62
2022/01/27 11:25:06;;;;;;;19.70;17.77;;;3.30;99.90;;;;;;5014560;28;20288;-62
2022/01/27 11:27:34;;;;;;;23.13;20.30;;;3.30;99.90;;;;;;5014560;28;20236;-62
2022/01/27 11:30:05;;;;;;;23.40;20.08;;;3.30;99.90;;;;;;5014091;28;20280;-62
2022/01/27 11:32:36;;;;;;;24.13;19.77;;;3.30;99.90;;;;;;5008316;28;20315;-62
2022/01/27 11:35:17;;;;;;;21.13;18.70;;;3.30;99.90;;;;;;5014495;28;20284;-63
2022/01/27 11:37:51;;;;;;;23.42;21.02;;;3.40;99.90;;;;;;5014346;28;20243;-62
2022/01/27 11:40:20;;;;;;;19.42;17.42;;;3.40;99.90;;;;;;5014010;28;20732;-62
2022/01/27 11:43:07;;;;;;;18.20;16.40;;;3.40;99.90;;;;;;5013928;28;20233;-62
2022/01/27 11:45:37;;;;;;;20.95;18.77;;;3.40;99.90;;;;;;5013837;28;20287;-62
2022/01/27 11:48:08;;;;;;;21.40;19.20;;;3.40;99.90;;;;;;5007587;28;20201;-61
2022/01/27 11:50:53;;;;;;;21.55;19.35;;;3.40;99.90;;;;;;5008403;28;20208;-62
2022/01/27 11:53:37;;;;;;;22.42;19.85;;;3.40;99.90;;;;;;5013672;28;20324;-62
2022/01/27 11:56:06;;;;;;;20.17;17.88;;;3.40;99.90;;;;;;5014263;28;20236;-62
2022/01/27 11:58:53;;;;;;;19.58;17.52;;;3.40;99.90;;;;;;5013513;28;20224;-62
2022/01/27 12:01:23;;;;;;;20.63;18.38;;;3.40;99.90;;;;;;5013852;28;20263;-62
2022/01/27 12:04:15;;;;;;;22.23;19.48;;;3.40;99.90;;;;;;5013435;28;20249;-62
2022/01/27 12:07:04;;;;;;;21.38;18.88;;;3.40;99.90;;;;;;5013573;28;20204;-62
2022/01/27 12:09:36;;;;;;;19.95;17.83;;;3.50;99.90;;;;;;5013310;28;20255;-64
2022/01/27 12:12:12;;;;;;;20.10;17.00;;;3.50;99.90;;;;;;5013655;28;20227;-62
2022/01/27 12:15:08;;;;;;;20.33;18.17;;;3.60;99.90;;;;;;5013659;28;20209;-62
2022/01/27 12:17:36;;;;;;;21.40;18.92;;;3.50;99.90;;;;;;5013835;28;20214;-62
2022/01/27 12:20:13;;;;;;;20.17;18.05;;;3.40;99.90;;;;;;5013346;28;20221;-62
2022/01/27 12:23:01;;;;;;;22.90;20.00;;;3.40;99.90;;;;;;5013066;28;20221;-62
2022/01/27 12:25:47;;;;;;;22.83;19.98;;;3.30;99.90;;;;;;5013226;28;20705;-62
2022/01/27 12:28:15;;;;;;;23.58;20.38;;;3.20;99.90;;;;;;5007645;28;20252;-62
2022/01/27 12:30:56;;;;;;;21.60;19.50;;;3.30;99.90;;;;;;5013278;28;20193;-62
2022/01/27 12:33:24;;;;;;;26.80;20.08;;;3.20;99.90;;;;;;5013047;28;20709;-62
2022/01/27 12:35:55;;;;;;;23.35;20.77;;;3.20;99.90;;;;;;5013136;28;20243;-63
2022/01/27 12:38:24;;;;;;;22.60;20.17;;;3.20;99.90;;;;;;5012894;28;20545;-62
2022/01/27 12:40:59;;;;;;;21.42;19.15;;;3.30;99.90;;;;;;5012966;28;20667;-62
2022/01/27 12:43:27;;;;;;;23.08;20.55;;;3.30;99.90;;;;;;5012763;28;20234;-62
2022/01/27 12:45:59;;;;;;;22.27;19.67;;;3.30;99.90;;;;;;5012903;28;20736;-62
2022/01/27 12:48:27;;;;;;;22.63;20.50;;;3.40;99.90;;;;;;5012633;28;20705;-62
2022/01/27 12:50:58;;;;;;;23.05;20.60;;;3.30;99.90;;;;;;5012973;28;20569;-62
2022/01/27 12:53:28;;;;;;;24.02;21.38;;;3.20;99.90;;;;;;5012384;28;20245;-62
2022/01/27 12:55:56;;;;;;;24.00;21.33;;;3.30;99.90;;;;;;5012885;28;20308;-62
2022/01/27 12:58:32;;;;;;;23.15;20.83;;;3.30;99.90;;;;;;5011598;28;20259;-62
2022/01/27 13:01:01;;;;;;;23.23;20.90;;;3.30;99.90;;;;;;5012441;28;20496;-63
2022/01/27 13:03:30;;;;;;;22.35;20.05;;;3.30;99.90;;;;;;5006428;28;20348;-62
2022/01/27 13:06:03;;;;;;;23.70;21.20;;;3.40;99.90;;;;;;5006499;28;20400;-63
2022/01/27 13:08:31;;;;;;;23.13;20.27;;;3.40;99.90;;;;;;5007109;28;20288;-62
2022/01/27 13:11:07;;;;;;;24.10;21.60;;;3.40;99.90;;;;;;5012236;28;20201;-62
2022/01/27 13:13:39;;;;;;;24.00;21.35;;;3.50;99.90;;;;;;5012527;28;20324;-62
2022/01/27 13:16:15;;;;;;;25.50;21.90;;;3.50;99.90;;;;;;5012432;28;20214;-62